sensor_id;sensor_type;location;lat;lon;timestamp;P1;durP1;ratioP1;P2;durP2;ratioP2
32826;SDS011;51059;42.058;27.986;2023-04-06T00:00:49;10.53;;;5.50;;
32826;SDS011;51059;42.058;27.986;2023-04-06T00:03:15;12.53;;;8.50;;
32826;SDS011;51059;42.058;27.986;2023-04-06T00:05:41;6.37;;;4.20;;
32826;SDS011;51059;42.058;27.986;2023-04-06T00:08:07;6.27;;;3.53;;
32826;SDS011;51059;42.058;27.986;2023-04-06T00:10:32;4.77;;;3.27;;
32826;SDS011;51059;42.058;27.986;2023-04-06T00:12:58;6.07;;;3.10;;
32826;SDS011;51059;42.058;27.986;2023-04-06T00:15:25;10.33;;;5.67;;
32826;SDS011;51059;42.058;27.986;2023-04-06T00:17:51;6.60;;;5.03;;
32826;SDS011;51059;42.058;27.986;2023-04-06T00:20:17;9.60;;;4.57;;
32826;SDS011;51059;42.058;27.986;2023-04-06T00:22:43;6.77;;;4.20;;
32826;SDS011;51059;42.058;27.986;2023-04-06T00:25:09;5.00;;;3.60;;
32826;SDS011;51059;42.058;27.986;2023-04-06T00:27:36;5.67;;;3.63;;
32826;SDS011;51059;42.058;27.986;2023-04-06T00:30:03;5.57;;;3.77;;
32826;SDS011;51059;42.058;27.986;2023-04-06T00:32:30;5.30;;;3.70;;
32826;SDS011;51059;42.058;27.986;2023-04-06T00:34:56;5.53;;;3.30;;
32826;SDS011;51059;42.058;27.986;2023-04-06T00:37:22;5.33;;;3.60;;
32826;SDS011;51059;42.058;27.986;2023-04-06T00:39:47;3.77;;;3.03;;
32826;SDS011;51059;42.058;27.986;2023-04-06T00:42:13;4.50;;;3.40;;
32826;SDS011;51059;42.058;27.986;2023-04-06T00:44:40;4.93;;;3.23;;
32826;SDS011;51059;42.058;27.986;2023-04-06T00:47:06;5.73;;;3.60;;
32826;SDS011;51059;42.058;27.986;2023-04-06T00:49:32;5.43;;;3.60;;
32826;SDS011;51059;42.058;27.986;2023-04-06T00:51:58;7.57;;;3.57;;
32826;SDS011;51059;42.058;27.986;2023-04-06T00:54:24;5.77;;;3.77;;
32826;SDS011;51059;42.058;27.986;2023-04-06T00:56:49;5.37;;;3.57;;
32826;SDS011;51059;42.058;27.986;2023-04-06T00:59:15;7.70;;;3.90;;
32826;SDS011;51059;42.058;27.986;2023-04-06T01:01:41;6.03;;;4.23;;
32826;SDS011;51059;42.058;27.986;2023-04-06T01:04:06;7.77;;;4.47;;
32826;SDS011;51059;42.058;27.986;2023-04-06T01:06:32;7.20;;;4.57;;
32826;SDS011;51059;42.058;27.986;2023-04-06T01:08:58;6.27;;;3.90;;
32826;SDS011;51059;42.058;27.986;2023-04-06T01:11:23;6.30;;;3.80;;
32826;SDS011;51059;42.058;27.986;2023-04-06T01:13:49;6.07;;;3.93;;
32826;SDS011;51059;42.058;27.986;2023-04-06T01:16:15;5.43;;;3.50;;
32826;SDS011;51059;42.058;27.986;2023-04-06T01:18:40;6.73;;;3.63;;
32826;SDS011;51059;42.058;27.986;2023-04-06T01:21:07;7.00;;;3.47;;
32826;SDS011;51059;42.058;27.986;2023-04-06T01:23:34;5.47;;;3.60;;
32826;SDS011;51059;42.058;27.986;2023-04-06T01:26:00;5.27;;;3.40;;
32826;SDS011;51059;42.058;27.986;2023-04-06T01:28:26;4.27;;;3.40;;
32826;SDS011;51059;42.058;27.986;2023-04-06T01:30:51;4.63;;;3.37;;
32826;SDS011;51059;42.058;27.986;2023-04-06T01:33:17;4.07;;;3.30;;
32826;SDS011;51059;42.058;27.986;2023-04-06T01:35:42;3.93;;;3.23;;
32826;SDS011;51059;42.058;27.986;2023-04-06T01:38:08;4.43;;;3.30;;
32826;SDS011;51059;42.058;27.986;2023-04-06T01:40:34;3.80;;;3.07;;
32826;SDS011;51059;42.058;27.986;2023-04-06T01:42:59;6.17;;;3.30;;
32826;SDS011;51059;42.058;27.986;2023-04-06T01:45:25;3.97;;;2.87;;
32826;SDS011;51059;42.058;27.986;2023-04-06T01:47:51;4.20;;;3.17;;
32826;SDS011;51059;42.058;27.986;2023-04-06T01:50:16;6.87;;;3.00;;
32826;SDS011;51059;42.058;27.986;2023-04-06T01:52:42;5.23;;;3.00;;
32826;SDS011;51059;42.058;27.986;2023-04-06T01:55:08;5.73;;;2.90;;
32826;SDS011;51059;42.058;27.986;2023-04-06T01:57:33;5.33;;;2.50;;
32826;SDS011;51059;42.058;27.986;2023-04-06T02:00:00;3.77;;;2.70;;
32826;SDS011;51059;42.058;27.986;2023-04-06T02:02:25;9.07;;;2.73;;
32826;SDS011;51059;42.058;27.986;2023-04-06T02:04:51;3.40;;;2.63;;
32826;SDS011;51059;42.058;27.986;2023-04-06T02:07:16;4.07;;;2.77;;
32826;SDS011;51059;42.058;27.986;2023-04-06T02:09:42;4.10;;;3.20;;
32826;SDS011;51059;42.058;27.986;2023-04-06T02:12:08;4.47;;;3.10;;
32826;SDS011;51059;42.058;27.986;2023-04-06T02:14:33;4.77;;;2.73;;
32826;SDS011;51059;42.058;27.986;2023-04-06T02:16:59;3.10;;;2.60;;
32826;SDS011;51059;42.058;27.986;2023-04-06T02:19:25;4.53;;;2.80;;
32826;SDS011;51059;42.058;27.986;2023-04-06T02:21:51;3.73;;;3.07;;
32826;SDS011;51059;42.058;27.986;2023-04-06T02:24:16;6.73;;;2.73;;
32826;SDS011;51059;42.058;27.986;2023-04-06T02:26:42;3.53;;;3.00;;
32826;SDS011;51059;42.058;27.986;2023-04-06T02:29:08;3.67;;;2.67;;
32826;SDS011;51059;42.058;27.986;2023-04-06T02:31:33;4.23;;;3.07;;
32826;SDS011;51059;42.058;27.986;2023-04-06T02:33:59;9.80;;;3.70;;
32826;SDS011;51059;42.058;27.986;2023-04-06T02:36:25;4.57;;;3.37;;
32826;SDS011;51059;42.058;27.986;2023-04-06T02:38:51;4.77;;;3.67;;
32826;SDS011;51059;42.058;27.986;2023-04-06T02:41:16;5.73;;;4.80;;
32826;SDS011;51059;42.058;27.986;2023-04-06T02:43:42;6.87;;;4.60;;
32826;SDS011;51059;42.058;27.986;2023-04-06T02:46:08;6.63;;;4.47;;
32826;SDS011;51059;42.058;27.986;2023-04-06T02:48:33;5.93;;;4.20;;
32826;SDS011;51059;42.058;27.986;2023-04-06T02:51:01;7.37;;;4.23;;
32826;SDS011;51059;42.058;27.986;2023-04-06T02:53:27;5.07;;;4.00;;
32826;SDS011;51059;42.058;27.986;2023-04-06T02:55:53;7.90;;;4.00;;
32826;SDS011;51059;42.058;27.986;2023-04-06T02:58:18;5.60;;;4.20;;
32826;SDS011;51059;42.058;27.986;2023-04-06T03:00:44;5.27;;;3.90;;
32826;SDS011;51059;42.058;27.986;2023-04-06T03:03:10;5.67;;;3.73;;
32826;SDS011;51059;42.058;27.986;2023-04-06T03:05:35;8.63;;;3.90;;
32826;SDS011;51059;42.058;27.986;2023-04-06T03:08:01;4.73;;;3.47;;
32826;SDS011;51059;42.058;27.986;2023-04-06T03:10:27;6.03;;;3.70;;
32826;SDS011;51059;42.058;27.986;2023-04-06T03:12:52;4.00;;;3.03;;
32826;SDS011;51059;42.058;27.986;2023-04-06T03:15:18;4.33;;;3.23;;
32826;SDS011;51059;42.058;27.986;2023-04-06T03:17:44;4.77;;;3.40;;
32826;SDS011;51059;42.058;27.986;2023-04-06T03:20:09;7.57;;;3.57;;
32826;SDS011;51059;42.058;27.986;2023-04-06T03:22:35;4.73;;;3.33;;
32826;SDS011;51059;42.058;27.986;2023-04-06T03:25:01;5.30;;;3.77;;
32826;SDS011;51059;42.058;27.986;2023-04-06T03:27:26;5.50;;;3.50;;
32826;SDS011;51059;42.058;27.986;2023-04-06T03:29:52;6.27;;;4.20;;
32826;SDS011;51059;42.058;27.986;2023-04-06T03:32:17;7.73;;;4.17;;
32826;SDS011;51059;42.058;27.986;2023-04-06T03:34:43;11.97;;;4.80;;
32826;SDS011;51059;42.058;27.986;2023-04-06T03:37:09;8.67;;;5.70;;
32826;SDS011;51059;42.058;27.986;2023-04-06T03:39:34;9.30;;;6.13;;
32826;SDS011;51059;42.058;27.986;2023-04-06T03:42:00;10.20;;;6.30;;
32826;SDS011;51059;42.058;27.986;2023-04-06T03:44:26;11.50;;;5.97;;
32826;SDS011;51059;42.058;27.986;2023-04-06T03:46:52;10.77;;;6.10;;
32826;SDS011;51059;42.058;27.986;2023-04-06T03:49:17;10.30;;;6.70;;
32826;SDS011;51059;42.058;27.986;2023-04-06T03:51:43;10.57;;;6.97;;
32826;SDS011;51059;42.058;27.986;2023-04-06T03:54:08;10.33;;;7.20;;
32826;SDS011;51059;42.058;27.986;2023-04-06T03:56:34;12.50;;;5.90;;
32826;SDS011;51059;42.058;27.986;2023-04-06T03:59:00;8.33;;;5.23;;
32826;SDS011;51059;42.058;27.986;2023-04-06T04:01:26;7.27;;;4.77;;
32826;SDS011;51059;42.058;27.986;2023-04-06T04:03:52;5.37;;;4.40;;
32826;SDS011;51059;42.058;27.986;2023-04-06T04:06:18;7.03;;;4.23;;
32826;SDS011;51059;42.058;27.986;2023-04-06T04:08:44;7.50;;;4.27;;
32826;SDS011;51059;42.058;27.986;2023-04-06T04:11:10;9.00;;;4.90;;
32826;SDS011;51059;42.058;27.986;2023-04-06T04:13:35;7.67;;;4.83;;
32826;SDS011;51059;42.058;27.986;2023-04-06T04:16:01;6.03;;;4.30;;
32826;SDS011;51059;42.058;27.986;2023-04-06T04:18:27;7.50;;;4.70;;
32826;SDS011;51059;42.058;27.986;2023-04-06T04:20:52;5.80;;;4.53;;
32826;SDS011;51059;42.058;27.986;2023-04-06T04:23:18;6.53;;;4.70;;
32826;SDS011;51059;42.058;27.986;2023-04-06T04:25:44;6.53;;;4.70;;
32826;SDS011;51059;42.058;27.986;2023-04-06T04:28:09;7.23;;;5.17;;
32826;SDS011;51059;42.058;27.986;2023-04-06T04:30:35;8.33;;;5.03;;
32826;SDS011;51059;42.058;27.986;2023-04-06T04:33:01;8.47;;;6.20;;
32826;SDS011;51059;42.058;27.986;2023-04-06T04:35:26;7.97;;;6.47;;
32826;SDS011;51059;42.058;27.986;2023-04-06T04:37:52;11.40;;;7.00;;
32826;SDS011;51059;42.058;27.986;2023-04-06T04:40:18;9.17;;;6.90;;
32826;SDS011;51059;42.058;27.986;2023-04-06T04:42:43;9.40;;;6.43;;
32826;SDS011;51059;42.058;27.986;2023-04-06T04:45:10;13.00;;;8.23;;
32826;SDS011;51059;42.058;27.986;2023-04-06T04:47:36;14.30;;;9.97;;
32826;SDS011;51059;42.058;27.986;2023-04-06T04:50:02;15.47;;;10.53;;
32826;SDS011;51059;42.058;27.986;2023-04-06T04:52:28;14.07;;;10.33;;
32826;SDS011;51059;42.058;27.986;2023-04-06T04:54:53;15.43;;;11.17;;
32826;SDS011;51059;42.058;27.986;2023-04-06T04:57:19;17.03;;;10.33;;
32826;SDS011;51059;42.058;27.986;2023-04-06T04:59:44;16.67;;;10.73;;
32826;SDS011;51059;42.058;27.986;2023-04-06T05:02:10;14.57;;;9.43;;
32826;SDS011;51059;42.058;27.986;2023-04-06T05:04:36;14.13;;;9.00;;
32826;SDS011;51059;42.058;27.986;2023-04-06T05:07:08;11.23;;;8.10;;
32826;SDS011;51059;42.058;27.986;2023-04-06T05:09:34;12.87;;;8.37;;
32826;SDS011;51059;42.058;27.986;2023-04-06T05:12:00;11.20;;;8.70;;
32826;SDS011;51059;42.058;27.986;2023-04-06T05:14:26;11.60;;;8.73;;
32826;SDS011;51059;42.058;27.986;2023-04-06T05:16:52;12.37;;;8.57;;
32826;SDS011;51059;42.058;27.986;2023-04-06T05:19:18;10.87;;;7.77;;
32826;SDS011;51059;42.058;27.986;2023-04-06T05:21:44;12.47;;;8.37;;
32826;SDS011;51059;42.058;27.986;2023-04-06T05:24:10;12.83;;;8.13;;
32826;SDS011;51059;42.058;27.986;2023-04-06T05:26:36;15.50;;;9.33;;
32826;SDS011;51059;42.058;27.986;2023-04-06T05:29:01;13.10;;;10.07;;
32826;SDS011;51059;42.058;27.986;2023-04-06T05:31:27;13.83;;;9.63;;
32826;SDS011;51059;42.058;27.986;2023-04-06T05:33:54;14.17;;;9.27;;
32826;SDS011;51059;42.058;27.986;2023-04-06T05:36:19;13.53;;;9.20;;
32826;SDS011;51059;42.058;27.986;2023-04-06T05:38:45;11.87;;;9.03;;
32826;SDS011;51059;42.058;27.986;2023-04-06T05:41:11;11.87;;;9.20;;
32826;SDS011;51059;42.058;27.986;2023-04-06T05:43:36;13.43;;;10.03;;
32826;SDS011;51059;42.058;27.986;2023-04-06T05:46:02;14.30;;;10.53;;
32826;SDS011;51059;42.058;27.986;2023-04-06T05:48:28;13.97;;;10.40;;
32826;SDS011;51059;42.058;27.986;2023-04-06T05:50:54;12.20;;;10.33;;
32826;SDS011;51059;42.058;27.986;2023-04-06T05:53:20;14.03;;;10.13;;
32826;SDS011;51059;42.058;27.986;2023-04-06T05:55:46;12.47;;;9.83;;
32826;SDS011;51059;42.058;27.986;2023-04-06T05:58:12;13.13;;;10.17;;
32826;SDS011;51059;42.058;27.986;2023-04-06T06:00:38;11.57;;;9.83;;
32826;SDS011;51059;42.058;27.986;2023-04-06T06:03:03;11.37;;;9.27;;
32826;SDS011;51059;42.058;27.986;2023-04-06T06:05:30;13.37;;;9.70;;
32826;SDS011;51059;42.058;27.986;2023-04-06T06:07:56;15.37;;;9.87;;
32826;SDS011;51059;42.058;27.986;2023-04-06T06:10:22;14.87;;;11.20;;
32826;SDS011;51059;42.058;27.986;2023-04-06T06:12:48;14.93;;;12.50;;
32826;SDS011;51059;42.058;27.986;2023-04-06T06:15:13;15.93;;;11.53;;
32826;SDS011;51059;42.058;27.986;2023-04-06T06:17:39;15.70;;;11.37;;
32826;SDS011;51059;42.058;27.986;2023-04-06T06:20:06;13.30;;;11.03;;
32826;SDS011;51059;42.058;27.986;2023-04-06T06:22:32;18.00;;;10.67;;
32826;SDS011;51059;42.058;27.986;2023-04-06T06:24:58;13.27;;;10.93;;
32826;SDS011;51059;42.058;27.986;2023-04-06T06:27:26;12.77;;;9.97;;
32826;SDS011;51059;42.058;27.986;2023-04-06T06:29:52;13.83;;;10.17;;
32826;SDS011;51059;42.058;27.986;2023-04-06T06:32:18;12.37;;;10.30;;
32826;SDS011;51059;42.058;27.986;2023-04-06T06:34:43;13.20;;;10.67;;
32826;SDS011;51059;42.058;27.986;2023-04-06T06:37:09;16.53;;;12.13;;
32826;SDS011;51059;42.058;27.986;2023-04-06T06:39:35;17.30;;;12.07;;
32826;SDS011;51059;42.058;27.986;2023-04-06T06:42:00;16.13;;;11.13;;
32826;SDS011;51059;42.058;27.986;2023-04-06T06:44:26;17.27;;;12.23;;
32826;SDS011;51059;42.058;27.986;2023-04-06T06:46:53;17.43;;;12.17;;
32826;SDS011;51059;42.058;27.986;2023-04-06T06:49:18;15.57;;;11.90;;
32826;SDS011;51059;42.058;27.986;2023-04-06T06:51:44;17.70;;;11.93;;
32826;SDS011;51059;42.058;27.986;2023-04-06T06:54:12;15.40;;;11.10;;
32826;SDS011;51059;42.058;27.986;2023-04-06T06:56:38;17.30;;;11.60;;
32826;SDS011;51059;42.058;27.986;2023-04-06T06:59:04;19.00;;;13.63;;
32826;SDS011;51059;42.058;27.986;2023-04-06T07:01:34;17.63;;;12.90;;
32826;SDS011;51059;42.058;27.986;2023-04-06T07:03:59;14.87;;;11.53;;
32826;SDS011;51059;42.058;27.986;2023-04-06T07:06:25;15.77;;;10.83;;
32826;SDS011;51059;42.058;27.986;2023-04-06T07:08:51;14.93;;;9.03;;
32826;SDS011;51059;42.058;27.986;2023-04-06T07:11:16;14.07;;;8.63;;
32826;SDS011;51059;42.058;27.986;2023-04-06T07:13:42;12.17;;;8.67;;
32826;SDS011;51059;42.058;27.986;2023-04-06T07:16:08;12.90;;;8.13;;
32826;SDS011;51059;42.058;27.986;2023-04-06T07:18:34;11.47;;;8.40;;
32826;SDS011;51059;42.058;27.986;2023-04-06T07:21:00;15.60;;;7.47;;
32826;SDS011;51059;42.058;27.986;2023-04-06T07:23:25;14.70;;;8.10;;
32826;SDS011;51059;42.058;27.986;2023-04-06T07:25:51;13.37;;;7.67;;
32826;SDS011;51059;42.058;27.986;2023-04-06T07:28:18;12.23;;;8.43;;
32826;SDS011;51059;42.058;27.986;2023-04-06T07:30:44;12.67;;;8.00;;
32826;SDS011;51059;42.058;27.986;2023-04-06T07:33:10;12.53;;;7.60;;
32826;SDS011;51059;42.058;27.986;2023-04-06T07:35:35;9.37;;;7.60;;
32826;SDS011;51059;42.058;27.986;2023-04-06T07:38:02;15.70;;;7.60;;
32826;SDS011;51059;42.058;27.986;2023-04-06T07:40:27;15.80;;;7.90;;
32826;SDS011;51059;42.058;27.986;2023-04-06T07:42:53;11.97;;;8.70;;
32826;SDS011;51059;42.058;27.986;2023-04-06T07:45:19;10.63;;;7.80;;
32826;SDS011;51059;42.058;27.986;2023-04-06T07:47:45;11.50;;;7.47;;
32826;SDS011;51059;42.058;27.986;2023-04-06T07:50:11;12.57;;;8.40;;
32826;SDS011;51059;42.058;27.986;2023-04-06T07:52:37;10.20;;;8.70;;
32826;SDS011;51059;42.058;27.986;2023-04-06T07:55:04;16.03;;;9.50;;
32826;SDS011;51059;42.058;27.986;2023-04-06T07:57:30;15.30;;;8.83;;
32826;SDS011;51059;42.058;27.986;2023-04-06T07:59:55;9.53;;;6.83;;
32826;SDS011;51059;42.058;27.986;2023-04-06T08:02:21;8.53;;;6.73;;
32826;SDS011;51059;42.058;27.986;2023-04-06T08:04:47;13.20;;;6.63;;
32826;SDS011;51059;42.058;27.986;2023-04-06T08:07:14;9.53;;;6.70;;
32826;SDS011;51059;42.058;27.986;2023-04-06T08:09:40;7.70;;;6.30;;
32826;SDS011;51059;42.058;27.986;2023-04-06T08:12:05;8.80;;;6.37;;
32826;SDS011;51059;42.058;27.986;2023-04-06T08:14:31;10.03;;;7.10;;
32826;SDS011;51059;42.058;27.986;2023-04-06T08:16:57;9.60;;;6.73;;
32826;SDS011;51059;42.058;27.986;2023-04-06T08:19:22;9.33;;;5.90;;
32826;SDS011;51059;42.058;27.986;2023-04-06T08:21:48;6.30;;;4.80;;
32826;SDS011;51059;42.058;27.986;2023-04-06T08:24:14;5.50;;;4.93;;
32826;SDS011;51059;42.058;27.986;2023-04-06T08:26:40;8.37;;;5.33;;
32826;SDS011;51059;42.058;27.986;2023-04-06T08:29:06;7.53;;;5.90;;
32826;SDS011;51059;42.058;27.986;2023-04-06T08:31:34;6.50;;;5.37;;
32826;SDS011;51059;42.058;27.986;2023-04-06T08:34:01;11.93;;;6.20;;
32826;SDS011;51059;42.058;27.986;2023-04-06T08:36:28;7.40;;;5.53;;
32826;SDS011;51059;42.058;27.986;2023-04-06T08:38:54;7.87;;;6.00;;
32826;SDS011;51059;42.058;27.986;2023-04-06T08:41:19;6.97;;;5.97;;
32826;SDS011;51059;42.058;27.986;2023-04-06T08:43:58;7.40;;;6.17;;
32826;SDS011;51059;42.058;27.986;2023-04-06T08:46:25;9.50;;;6.03;;
32826;SDS011;51059;42.058;27.986;2023-04-06T08:48:58;6.10;;;5.50;;
32826;SDS011;51059;42.058;27.986;2023-04-06T08:51:27;8.53;;;6.27;;
32826;SDS011;51059;42.058;27.986;2023-04-06T08:53:54;10.67;;;6.40;;
32826;SDS011;51059;42.058;27.986;2023-04-06T08:56:24;11.03;;;6.17;;
32826;SDS011;51059;42.058;27.986;2023-04-06T08:58:50;9.93;;;6.83;;
32826;SDS011;51059;42.058;27.986;2023-04-06T09:01:18;10.63;;;6.50;;
32826;SDS011;51059;42.058;27.986;2023-04-06T09:03:46;6.90;;;6.20;;
32826;SDS011;51059;42.058;27.986;2023-04-06T09:06:14;8.70;;;6.50;;
32826;SDS011;51059;42.058;27.986;2023-04-06T09:08:40;7.90;;;6.50;;
32826;SDS011;51059;42.058;27.986;2023-04-06T09:11:07;7.20;;;6.40;;
32826;SDS011;51059;42.058;27.986;2023-04-06T09:13:46;9.27;;;7.37;;
32826;SDS011;51059;42.058;27.986;2023-04-06T09:16:12;7.77;;;6.47;;
32826;SDS011;51059;42.058;27.986;2023-04-06T09:18:38;8.10;;;6.87;;
32826;SDS011;51059;42.058;27.986;2023-04-06T09:21:05;9.77;;;7.10;;
32826;SDS011;51059;42.058;27.986;2023-04-06T09:23:33;7.43;;;6.70;;
32826;SDS011;51059;42.058;27.986;2023-04-06T09:26:15;7.57;;;6.80;;
32826;SDS011;51059;42.058;27.986;2023-04-06T09:28:52;7.83;;;6.87;;
32826;SDS011;51059;42.058;27.986;2023-04-06T09:31:22;8.50;;;7.07;;
32826;SDS011;51059;42.058;27.986;2023-04-06T09:33:49;8.70;;;7.70;;
32826;SDS011;51059;42.058;27.986;2023-04-06T09:36:17;9.03;;;7.80;;
32826;SDS011;51059;42.058;27.986;2023-04-06T09:38:55;9.23;;;7.20;;
32826;SDS011;51059;42.058;27.986;2023-04-06T09:41:32;10.63;;;6.97;;
32826;SDS011;51059;42.058;27.986;2023-04-06T09:46:28;8.83;;;7.00;;
32826;SDS011;51059;42.058;27.986;2023-04-06T09:49:04;8.13;;;7.27;;
32826;SDS011;51059;42.058;27.986;2023-04-06T09:51:40;8.47;;;7.30;;
32826;SDS011;51059;42.058;27.986;2023-04-06T09:54:07;7.90;;;7.10;;
32826;SDS011;51059;42.058;27.986;2023-04-06T09:56:34;11.80;;;8.07;;
32826;SDS011;51059;42.058;27.986;2023-04-06T09:59:07;8.63;;;7.73;;
32826;SDS011;51059;42.058;27.986;2023-04-06T10:01:34;9.50;;;8.50;;
32826;SDS011;51059;42.058;27.986;2023-04-06T10:04:46;11.27;;;8.20;;
32826;SDS011;51059;42.058;27.986;2023-04-06T10:06:56;12.80;;;8.77;;
32826;SDS011;51059;42.058;27.986;2023-04-06T10:09:24;11.33;;;8.53;;
32826;SDS011;51059;42.058;27.986;2023-04-06T10:11:51;12.73;;;8.57;;
32826;SDS011;51059;42.058;27.986;2023-04-06T10:14:17;9.73;;;8.53;;
32826;SDS011;51059;42.058;27.986;2023-04-06T10:16:42;9.73;;;8.70;;
32826;SDS011;51059;42.058;27.986;2023-04-06T10:19:18;16.10;;;8.63;;
32826;SDS011;51059;42.058;27.986;2023-04-06T10:21:52;12.97;;;8.63;;
32826;SDS011;51059;42.058;27.986;2023-04-06T10:24:19;10.13;;;8.70;;
32826;SDS011;51059;42.058;27.986;2023-04-06T10:27:06;9.43;;;8.43;;
32826;SDS011;51059;42.058;27.986;2023-04-06T10:29:44;9.50;;;8.50;;
32826;SDS011;51059;42.058;27.986;2023-04-06T10:32:11;12.70;;;8.53;;
32826;SDS011;51059;42.058;27.986;2023-04-06T10:34:37;9.17;;;7.93;;
32826;SDS011;51059;42.058;27.986;2023-04-06T10:37:15;9.00;;;7.87;;
32826;SDS011;51059;42.058;27.986;2023-04-06T10:39:51;9.20;;;7.67;;
32826;SDS011;51059;42.058;27.986;2023-04-06T10:42:23;9.77;;;7.63;;
32826;SDS011;51059;42.058;27.986;2023-04-06T10:45:18;8.87;;;7.93;;
32826;SDS011;51059;42.058;27.986;2023-04-06T10:47:45;8.70;;;7.47;;
32826;SDS011;51059;42.058;27.986;2023-04-06T10:50:12;8.93;;;7.13;;
32826;SDS011;51059;42.058;27.986;2023-04-06T10:52:40;11.30;;;8.30;;
32826;SDS011;51059;42.058;27.986;2023-04-06T10:55:06;10.43;;;8.20;;
32826;SDS011;51059;42.058;27.986;2023-04-06T10:57:35;9.17;;;7.80;;
32826;SDS011;51059;42.058;27.986;2023-04-06T11:00:03;9.50;;;7.87;;
32826;SDS011;51059;42.058;27.986;2023-04-06T11:02:35;10.17;;;8.10;;
32826;SDS011;51059;42.058;27.986;2023-04-06T11:05:03;10.63;;;8.77;;
32826;SDS011;51059;42.058;27.986;2023-04-06T11:07:29;12.20;;;9.23;;
32826;SDS011;51059;42.058;27.986;2023-04-06T11:09:55;13.17;;;8.97;;
32826;SDS011;51059;42.058;27.986;2023-04-06T11:12:25;11.73;;;8.83;;
32826;SDS011;51059;42.058;27.986;2023-04-06T11:14:56;12.67;;;9.50;;
32826;SDS011;51059;42.058;27.986;2023-04-06T11:17:30;10.03;;;8.83;;
32826;SDS011;51059;42.058;27.986;2023-04-06T11:19:56;12.37;;;10.00;;
32826;SDS011;51059;42.058;27.986;2023-04-06T11:22:23;11.43;;;9.53;;
32826;SDS011;51059;42.058;27.986;2023-04-06T11:24:49;10.73;;;9.23;;
32826;SDS011;51059;42.058;27.986;2023-04-06T11:27:15;10.57;;;9.13;;
32826;SDS011;51059;42.058;27.986;2023-04-06T11:29:42;12.93;;;10.13;;
32826;SDS011;51059;42.058;27.986;2023-04-06T11:32:08;13.20;;;9.70;;
32826;SDS011;51059;42.058;27.986;2023-04-06T11:34:34;11.37;;;9.37;;
32826;SDS011;51059;42.058;27.986;2023-04-06T11:37:02;13.50;;;10.67;;
32826;SDS011;51059;42.058;27.986;2023-04-06T11:39:31;12.03;;;9.83;;
32826;SDS011;51059;42.058;27.986;2023-04-06T11:42:00;13.40;;;10.40;;
32826;SDS011;51059;42.058;27.986;2023-04-06T11:44:33;13.70;;;10.83;;
32826;SDS011;51059;42.058;27.986;2023-04-06T11:47:08;13.30;;;10.23;;
32826;SDS011;51059;42.058;27.986;2023-04-06T11:49:39;12.57;;;10.10;;
32826;SDS011;51059;42.058;27.986;2023-04-06T11:54:44;10.30;;;9.20;;
32826;SDS011;51059;42.058;27.986;2023-04-06T11:57:11;15.17;;;9.90;;
32826;SDS011;51059;42.058;27.986;2023-04-06T11:59:37;14.33;;;10.67;;
32826;SDS011;51059;42.058;27.986;2023-04-06T12:02:02;12.77;;;10.07;;
32826;SDS011;51059;42.058;27.986;2023-04-06T12:04:29;11.63;;;10.10;;
32826;SDS011;51059;42.058;27.986;2023-04-06T12:06:55;12.97;;;10.47;;
32826;SDS011;51059;42.058;27.986;2023-04-06T12:09:21;13.63;;;10.63;;
32826;SDS011;51059;42.058;27.986;2023-04-06T12:11:47;14.47;;;10.90;;
32826;SDS011;51059;42.058;27.986;2023-04-06T12:14:13;13.87;;;10.63;;
32826;SDS011;51059;42.058;27.986;2023-04-06T12:16:38;11.40;;;9.73;;
32826;SDS011;51059;42.058;27.986;2023-04-06T12:19:04;15.07;;;11.27;;
32826;SDS011;51059;42.058;27.986;2023-04-06T12:21:30;14.57;;;11.10;;
32826;SDS011;51059;42.058;27.986;2023-04-06T12:23:59;12.13;;;10.57;;
32826;SDS011;51059;42.058;27.986;2023-04-06T12:26:25;12.77;;;11.03;;
32826;SDS011;51059;42.058;27.986;2023-04-06T12:28:52;12.53;;;10.57;;
32826;SDS011;51059;42.058;27.986;2023-04-06T12:31:18;11.90;;;10.50;;
32826;SDS011;51059;42.058;27.986;2023-04-06T12:33:48;13.97;;;10.63;;
32826;SDS011;51059;42.058;27.986;2023-04-06T12:36:16;12.93;;;10.93;;
32826;SDS011;51059;42.058;27.986;2023-04-06T12:38:48;14.97;;;10.80;;
32826;SDS011;51059;42.058;27.986;2023-04-06T12:41:15;14.30;;;10.83;;
32826;SDS011;51059;42.058;27.986;2023-04-06T12:43:41;14.23;;;10.63;;
32826;SDS011;51059;42.058;27.986;2023-04-06T12:46:07;15.13;;;11.27;;
32826;SDS011;51059;42.058;27.986;2023-04-06T12:48:33;15.40;;;12.10;;
32826;SDS011;51059;42.058;27.986;2023-04-06T12:51:03;13.13;;;10.77;;
32826;SDS011;51059;42.058;27.986;2023-04-06T12:53:29;13.30;;;10.93;;
32826;SDS011;51059;42.058;27.986;2023-04-06T12:55:55;14.17;;;10.40;;
32826;SDS011;51059;42.058;27.986;2023-04-06T12:58:22;13.77;;;10.20;;
32826;SDS011;51059;42.058;27.986;2023-04-06T13:00:49;12.60;;;10.33;;
32826;SDS011;51059;42.058;27.986;2023-04-06T13:03:18;12.00;;;10.20;;
32826;SDS011;51059;42.058;27.986;2023-04-06T13:05:45;13.07;;;10.47;;
32826;SDS011;51059;42.058;27.986;2023-04-06T13:08:12;14.13;;;10.93;;
32826;SDS011;51059;42.058;27.986;2023-04-06T13:10:42;13.70;;;10.50;;
32826;SDS011;51059;42.058;27.986;2023-04-06T13:13:09;12.97;;;10.50;;
32826;SDS011;51059;42.058;27.986;2023-04-06T13:15:34;14.10;;;11.13;;
32826;SDS011;51059;42.058;27.986;2023-04-06T13:18:01;13.10;;;10.57;;
32826;SDS011;51059;42.058;27.986;2023-04-06T13:20:27;15.97;;;11.03;;
32826;SDS011;51059;42.058;27.986;2023-04-06T13:22:53;12.60;;;10.50;;
32826;SDS011;51059;42.058;27.986;2023-04-06T13:25:19;13.43;;;10.17;;
32826;SDS011;51059;42.058;27.986;2023-04-06T13:27:45;13.17;;;10.73;;
32826;SDS011;51059;42.058;27.986;2023-04-06T13:30:14;17.83;;;10.97;;
32826;SDS011;51059;42.058;27.986;2023-04-06T13:32:39;12.87;;;10.40;;
32826;SDS011;51059;42.058;27.986;2023-04-06T13:35:05;13.93;;;10.87;;
32826;SDS011;51059;42.058;27.986;2023-04-06T13:37:32;14.50;;;10.80;;
32826;SDS011;51059;42.058;27.986;2023-04-06T13:39:58;12.77;;;10.97;;
32826;SDS011;51059;42.058;27.986;2023-04-06T13:42:24;13.83;;;10.57;;
32826;SDS011;51059;42.058;27.986;2023-04-06T13:44:50;13.30;;;10.83;;
32826;SDS011;51059;42.058;27.986;2023-04-06T13:47:16;15.77;;;10.83;;
32826;SDS011;51059;42.058;27.986;2023-04-06T13:49:42;13.10;;;10.77;;
32826;SDS011;51059;42.058;27.986;2023-04-06T13:52:08;14.27;;;10.90;;
32826;SDS011;51059;42.058;27.986;2023-04-06T13:54:35;13.23;;;10.67;;
32826;SDS011;51059;42.058;27.986;2023-04-06T13:57:01;15.70;;;10.77;;
32826;SDS011;51059;42.058;27.986;2023-04-06T13:59:34;12.93;;;10.47;;
32826;SDS011;51059;42.058;27.986;2023-04-06T14:02:00;13.83;;;10.40;;
32826;SDS011;51059;42.058;27.986;2023-04-06T14:04:27;12.67;;;10.30;;
32826;SDS011;51059;42.058;27.986;2023-04-06T14:06:53;13.90;;;10.90;;
32826;SDS011;51059;42.058;27.986;2023-04-06T14:09:18;12.03;;;9.67;;
32826;SDS011;51059;42.058;27.986;2023-04-06T14:11:44;14.30;;;11.00;;
32826;SDS011;51059;42.058;27.986;2023-04-06T14:14:09;12.80;;;10.23;;
32826;SDS011;51059;42.058;27.986;2023-04-06T14:16:35;14.50;;;10.27;;
32826;SDS011;51059;42.058;27.986;2023-04-06T14:19:01;12.67;;;10.13;;
32826;SDS011;51059;42.058;27.986;2023-04-06T14:21:26;13.00;;;10.33;;
32826;SDS011;51059;42.058;27.986;2023-04-06T14:23:52;13.77;;;11.07;;
32826;SDS011;51059;42.058;27.986;2023-04-06T14:26:18;12.60;;;10.90;;